Home   Weather   Italy   Firenze   Past weeks
Flag for Italy

Past Weather in Firenze, Italy — Yesterday and Last 2 Weeks

Currently: 79 °F. Clear. (Weather station: Florence / Peretola, Italy). See more current weather

Past Weather in Firenze — Graph

°F

Firenze Temperature Yesterday

Maximum temperature yesterday: 97 °F (at 1:20 pm)
Minimum temperature yesterday: 73 °F (at 11:20 pm)
Average temperature yesterday: 80 °F

High & Low Weather Summary for the Past Weeks

 TemperatureHumidityPressure
High100 °F (Jul 19, 2:50 pm)94% (Jul 23, 1:50 am)30.04 "Hg (Jul 23, 1:50 am)
Low64 °F (Jul 9, 3:50 am)22% (Jul 18, 2:20 pm)29.74 "Hg (Jul 20, 4:50 pm)
Average82 °F55%29.91 "Hg
* Reported Jul 8 9:20 pm — Jul 23 9:20 pm, Firenze. Weather by CustomWeather, © 2024

Note: Actual official high and low records may vary slightly from our data, if they occured in-between our weather recording intervals... More about our weather records

Firenze Weather History for the Previous 24 Hours

Scroll right to see more
 ConditionsComfort  
Time TempWeatherWind HumidityBarometerVisibility
9:20 pm
Tue, Jul 23
79 °FClear.1 mph65%29.92 "Hg10 mi
8:50 pm79 °FClear.2 mph70%29.92 "Hg10 mi
8:20 pm82 °FSunny.1 mph58%29.92 "Hg10 mi
7:50 pm82 °FSunny.1 mph58%29.92 "Hg10 mi
7:20 pm82 °FPassing clouds.5 mph58%29.92 "HgN/A
6:50 pm82 °FSunny.6 mph58%29.92 "Hg10 mi
6:20 pm84 °FPassing clouds.6 mph51%29.92 "HgN/A
5:50 pm84 °FPassing clouds.6 mph51%29.92 "HgN/A
5:20 pm81 °FScattered clouds.9 mph66%29.95 "HgN/A
4:50 pm81 °FThunderstorms. Broken clouds.15 mph66%29.95 "HgN/A
4:20 pm93 °FScattered clouds.8 mph39%29.92 "HgN/A
3:20 pm97 °FScattered clouds.7 mph32%29.92 "HgN/A
2:50 pm97 °FPassing clouds.7 mph30%29.92 "HgN/A
2:20 pm95 °FPassing clouds.7 mph32%29.92 "HgN/A
1:50 pm95 °FPassing clouds.8 mph34%29.92 "HgN/A
1:20 pm93 °FSunny.6 mph36%29.95 "Hg10 mi
12:50 pm95 °FSunny.6 mph34%29.95 "Hg10 mi
12:20 pm93 °FPassing clouds.3 mph39%29.95 "HgN/A
11:50 am91 °FPassing clouds.5 mph41%29.95 "HgN/A
11:20 am90 °FPassing clouds.5 mph46%29.95 "HgN/A
10:50 am86 °FPassing clouds.5 mph52%29.95 "HgN/A
10:20 am84 °FSunny.2 mph55%29.95 "Hg10 mi
9:50 am81 °FSunny.2 mph62%29.98 "Hg10 mi
9:20 am79 °FSunny.2 mph65%29.98 "Hg10 mi
8:50 am77 °FSunny.1 mph69%29.98 "Hg10 mi
8:20 am75 °FSunny.1 mph74%29.98 "Hg10 mi
7:50 am73 °FSunny.2 mph78%29.98 "Hg10 mi
7:20 am72 °FSunny.1 mph83%29.98 "Hg10 mi
6:50 am68 °FSunny.2 mph94%29.98 "Hg10 mi
6:20 am66 °FSunny.1 mph94%29.95 "Hg10 mi
5:50 am68 °FClear.1 mph88%29.95 "Hg10 mi
5:20 am68 °FClear.2 mph88%29.95 "Hg10 mi
4:50 am68 °FClear.1 mph94%29.95 "Hg10 mi
4:20 am68 °FClear.3 mph94%29.95 "Hg10 mi
3:50 am70 °FPassing clouds.3 mph88%29.95 "HgN/A
3:20 am70 °FClear.5 mph88%29.95 "Hg10 mi
2:50 am70 °FClear.2 mph88%29.95 "Hg10 mi
2:20 am70 °FClear.5 mph88%29.95 "Hg10 mi
1:50 am70 °FClear.1 mph94%29.95 "Hg10 mi
1:20 am72 °FClear.1 mph88%29.95 "Hg10 mi
12:50 am72 °FClear.1 mph88%29.95 "Hg10 mi
12:20 am72 °FClear.2 mph88%29.95 "Hg10 mi
11:50 pm
Mon, Jul 22
73 °FClear.3 mph83%29.95 "Hg10 mi
11:20 pm73 °FClear.1 mph89%29.95 "Hg10 mi
10:20 pm75 °FClear.2 mph83%29.92 "Hg10 mi
Weather by CustomWeather, © 2024

See weather overview